createdAt,value
2018-05-07T00:04:24.598Z,62.64
2018-05-07T00:06:53.598Z,62.88
2018-05-07T00:09:26.202Z,62.92
2018-05-07T00:12:04.966Z,62.73
2018-05-07T00:20:16.778Z,61.04
2018-05-07T00:22:46.424Z,60.15
2018-05-07T00:25:17.072Z,62.47
2018-05-07T00:28:01.326Z,63.04
2018-05-07T00:30:30.993Z,62.70
2018-05-07T00:33:03.612Z,62.67
2018-05-07T00:35:36.453Z,63.19
2018-05-07T00:41:08.349Z,63.49
2018-05-07T00:43:44.744Z,64.19
2018-05-07T00:46:14.380Z,65.95
2018-05-07T00:48:43.269Z,67.44
2018-05-07T00:51:19.638Z,68.32
2018-05-07T00:53:49.650Z,69.87
2018-05-07T00:56:18.642Z,68.87
2018-05-07T00:58:47.860Z,68.32
2018-05-07T01:01:17.800Z,66.57
2018-05-07T01:03:47.242Z,67.54
2018-05-07T01:06:20.349Z,67.88
2018-05-07T01:08:50.354Z,67.63
2018-05-07T01:11:19.871Z,65.71
2018-05-07T01:13:48.747Z,66.61
2018-05-07T01:16:17.880Z,67.93
2018-05-07T01:18:46.631Z,68.40
2018-05-07T01:21:16.174Z,68.50
2018-05-07T01:23:44.863Z,68.73
2018-05-07T01:29:02.165Z,69.80
2018-05-07T01:31:30.924Z,69.92
2018-05-07T01:34:01.150Z,69.75
2018-05-07T01:36:29.760Z,69.98
2018-05-07T01:38:58.726Z,70.57
2018-05-07T01:41:27.400Z,70.68
2018-05-07T01:43:56.035Z,70.99
2018-05-07T01:46:24.633Z,71.08
2018-05-07T01:48:53.278Z,69.16
2018-05-07T01:51:21.964Z,70.17
2018-05-07T01:53:51.689Z,70.22
2018-05-07T01:56:22.246Z,69.95
2018-05-07T01:58:54.880Z,70.52
2018-05-07T02:04:12.149Z,69.14
2018-05-07T02:06:40.774Z,69.63
2018-05-07T02:09:09.441Z,69.12
2018-05-07T02:11:38.043Z,71.19
2018-05-07T02:14:06.667Z,72.06
2018-05-07T02:16:35.473Z,72.67
2018-05-07T02:19:04.083Z,72.54
2018-05-07T02:21:32.711Z,72.64
2018-05-07T02:24:01.371Z,72.59
2018-05-07T02:26:30.560Z,72.15
2018-05-07T02:28:59.617Z,71.96
2018-05-07T02:34:15.825Z,70.57
2018-05-07T02:36:45.374Z,71.61
2018-05-07T02:39:14.024Z,72.01
2018-05-07T02:41:42.713Z,72.42
2018-05-07T02:44:11.313Z,73.14
2018-05-07T02:46:39.945Z,73.56
2018-05-07T02:49:08.559Z,73.40
2018-05-07T02:51:37.181Z,73.64
2018-05-07T02:54:06.045Z,73.39
2018-05-07T02:56:34.670Z,73.34
2018-05-07T02:59:03.788Z,71.46
2018-05-07T03:01:32.422Z,71.86
2018-05-07T03:04:01.474Z,71.79
2018-05-07T03:06:32.520Z,72.17
2018-05-07T03:09:01.146Z,72.72
2018-05-07T03:11:29.777Z,72.74
2018-05-07T03:13:58.425Z,72.93
2018-05-07T03:16:27.427Z,73.57
2018-05-07T03:18:56.060Z,73.89
2018-05-07T03:21:24.684Z,73.66
2018-05-07T03:23:53.314Z,71.33
2018-05-07T03:26:22.230Z,72.12
2018-05-07T03:28:50.893Z,73.00
2018-05-07T03:31:20.027Z,73.04
2018-05-07T03:33:48.866Z,73.49
2018-05-07T03:36:17.875Z,73.63
2018-05-07T03:38:47.010Z,73.31
2018-05-07T03:41:16.390Z,72.97
2018-05-07T03:43:45.159Z,72.16
2018-05-07T03:46:15.371Z,71.66
2018-05-07T03:48:44.326Z,72.47
2018-05-07T03:51:13.219Z,72.70
2018-05-07T03:53:42.642Z,72.32
2018-05-07T03:56:11.622Z,72.33
2018-05-07T03:58:40.866Z,71.89
2018-05-07T04:01:09.819Z,72.42
2018-05-07T04:03:39.186Z,71.51
2018-05-07T04:06:07.787Z,70.99
2018-05-07T04:08:36.396Z,68.08
2018-05-07T04:11:05.056Z,69.11
2018-05-07T04:13:33.706Z,69.77
2018-05-07T04:16:02.655Z,70.30
2018-05-07T04:19:08.383Z,70.70
2018-05-07T04:21:37.019Z,70.89
2018-05-07T04:24:23.856Z,71.44
2018-05-07T04:26:54.673Z,71.51
2018-05-07T04:32:11.356Z,70.88
2018-05-07T04:34:40.290Z,70.50
2018-05-07T04:37:09.269Z,71.75
2018-05-07T04:39:39.097Z,72.54
2018-05-07T04:44:55.657Z,74.30
2018-05-07T04:47:24.478Z,74.25
2018-05-07T04:52:41.242Z,73.48
2018-05-07T04:55:12.713Z,73.51
2018-05-07T04:57:46.678Z,74.04
2018-05-07T05:00:16.837Z,74.16
2018-05-07T05:02:45.993Z,73.74
2018-05-07T05:05:16.341Z,73.62
2018-05-07T05:07:45.560Z,73.78
2018-05-07T05:10:14.482Z,71.84
2018-05-07T05:12:44.143Z,70.67
2018-05-07T05:15:13.228Z,71.94
2018-05-07T05:17:41.854Z,72.42
2018-05-07T05:20:14.493Z,72.34
2018-05-07T05:22:43.175Z,72.31
2018-05-07T05:25:12.716Z,72.11
2018-05-07T05:27:41.351Z,73.08
2018-05-07T05:30:09.967Z,73.77
2018-05-07T05:32:42.532Z,73.47
2018-05-07T05:35:11.176Z,74.19
2018-05-07T05:37:39.809Z,74.97
2018-05-07T05:40:08.474Z,75.54
2018-05-07T05:42:37.082Z,75.31
2018-05-07T05:45:05.988Z,75.86
2018-05-07T05:47:34.608Z,75.75
2018-05-07T05:50:18.655Z,75.35
2018-05-07T05:52:47.233Z,75.11
2018-05-07T05:55:15.877Z,74.31
2018-05-07T05:57:45.459Z,74.31
2018-05-07T06:00:17.284Z,72.51
2018-05-07T06:02:47.955Z,72.38
2018-05-07T06:05:16.587Z,71.67
2018-05-07T06:07:46.521Z,70.94
2018-05-07T06:10:15.627Z,70.22
2018-05-07T06:12:45.281Z,70.01
2018-05-07T06:15:15.289Z,69.81
2018-05-07T06:17:44.121Z,69.55
2018-05-07T06:20:13.556Z,68.84
2018-05-07T06:22:44.828Z,68.36
2018-05-07T06:25:13.715Z,67.44
2018-05-07T06:27:42.820Z,66.66
2018-05-07T06:30:11.743Z,65.81
2018-05-07T06:32:40.858Z,65.02
2018-05-07T06:35:10.232Z,65.60
2018-05-07T06:37:44.324Z,65.16
2018-05-07T06:40:35.044Z,64.67
2018-05-07T06:43:09.082Z,63.98
2018-05-07T06:45:43.661Z,59.68
2018-05-07T06:48:18.440Z,60.91
2018-05-07T06:50:53.359Z,60.67
2018-05-07T06:53:27.312Z,60.40
2018-05-07T06:56:02.445Z,60.06
2018-05-07T06:58:37.244Z,59.89
2018-05-07T07:01:12.297Z,59.85
2018-05-07T07:03:46.363Z,58.51
2018-05-07T07:06:21.291Z,57.78
2018-05-07T07:08:55.608Z,58.24
2018-05-07T07:22:53.282Z,54.83
2018-05-07T07:31:00.814Z,55.12
2018-05-07T07:33:48.304Z,53.75
2018-05-07T07:36:16.962Z,52.90
2018-05-07T07:38:45.538Z,53.22
2018-05-07T07:41:14.173Z,51.55
2018-05-07T07:43:46.909Z,52.04
2018-05-07T07:46:15.557Z,51.58
2018-05-07T07:48:46.230Z,50.80
2018-05-07T07:51:14.785Z,51.02
2018-05-07T07:53:44.431Z,46.46
2018-05-07T07:56:12.969Z,48.40
2018-05-07T07:58:42.008Z,44.52
2018-05-07T08:01:18.511Z,46.96
2018-05-07T08:03:47.112Z,47.58
2018-05-07T08:06:15.751Z,48.01
2018-05-07T08:08:44.379Z,48.06
2018-05-07T08:13:43.030Z,43.39
2018-05-07T08:16:14.012Z,46.14
2018-05-07T08:18:43.628Z,47.20
2018-05-07T08:21:12.294Z,47.41
2018-05-07T08:23:41.801Z,45.93
2018-05-07T08:28:58.027Z,44.58
2018-05-07T08:31:26.678Z,44.63
2018-05-07T08:33:55.801Z,45.50
2018-05-07T08:36:24.455Z,45.48
2018-05-07T08:38:53.179Z,45.57
2018-05-07T08:41:23.700Z,44.95
2018-05-07T08:43:54.357Z,44.27
2018-05-07T08:46:24.933Z,44.29
2018-05-07T08:51:57.020Z,44.52
2018-05-07T08:57:22.133Z,44.46
2018-05-07T08:59:53.009Z,44.34
2018-05-07T09:02:21.959Z,42.75
2018-05-07T09:04:50.955Z,43.88
2018-05-07T09:07:19.800Z,43.83
2018-05-07T09:09:48.613Z,43.79
2018-05-07T09:12:17.459Z,42.87
2018-05-07T09:14:46.112Z,43.10
2018-05-07T09:17:15.860Z,42.94
2018-05-07T09:19:44.511Z,42.29
2018-05-07T09:22:13.137Z,38.86
2018-05-07T09:24:42.312Z,40.55
2018-05-07T09:27:10.843Z,41.51
2018-05-07T09:29:39.949Z,41.22
2018-05-07T09:32:08.901Z,40.67
2018-05-07T09:34:38.845Z,41.22
2018-05-07T09:37:07.766Z,36.89
2018-05-07T09:39:36.964Z,38.27
2018-05-07T09:42:06.378Z,39.10
2018-05-07T09:44:36.847Z,39.66
2018-05-07T09:47:05.812Z,40.68
2018-05-07T09:49:35.085Z,39.75
2018-05-07T09:52:03.618Z,39.90
2018-05-07T09:54:32.279Z,39.56
2018-05-07T09:57:00.909Z,39.54
2018-05-07T09:59:30.222Z,35.93
2018-05-07T10:01:59.509Z,37.18
2018-05-07T10:04:30.703Z,37.85
2018-05-07T10:06:59.509Z,33.78
2018-05-07T10:09:28.605Z,36.69
2018-05-07T10:11:57.256Z,37.05
2018-05-07T10:14:27.013Z,33.01
2018-05-07T10:16:56.362Z,36.09
2018-05-07T10:19:27.501Z,36.76
2018-05-07T10:21:56.507Z,37.03
2018-05-07T10:24:25.444Z,36.84
2018-05-07T10:26:58.497Z,36.60
2018-05-07T10:29:29.023Z,35.92
2018-05-07T10:31:58.557Z,37.57
2018-05-07T10:34:34.821Z,36.83
2018-05-07T10:37:04.520Z,32.77
2018-05-07T10:39:33.802Z,36.42
2018-05-07T10:42:02.881Z,37.52
2018-05-07T10:44:31.675Z,36.86
2018-05-07T10:47:03.159Z,36.01
2018-05-07T10:49:31.845Z,36.24
2018-05-07T10:52:01.163Z,35.45
2018-05-07T10:54:30.071Z,35.51
2018-05-07T10:56:59.156Z,36.54
2018-05-07T10:59:27.849Z,36.54
2018-05-07T11:01:59.915Z,37.20
2018-05-07T11:04:29.106Z,36.71
2018-05-07T11:06:59.192Z,37.28
2018-05-07T11:09:29.642Z,36.37
2018-05-07T11:11:58.429Z,37.26
2018-05-07T11:14:27.271Z,35.60
2018-05-07T11:16:56.294Z,35.93
2018-05-07T11:19:25.625Z,35.00
2018-05-07T11:21:55.124Z,35.28
2018-05-07T11:24:34.775Z,33.58
2018-05-07T11:27:06.968Z,31.99
2018-05-07T11:29:35.939Z,31.62
2018-05-07T11:32:04.799Z,32.60
2018-05-07T11:34:36.898Z,33.02
2018-05-07T11:37:09.435Z,34.00
2018-05-07T11:39:39.279Z,34.94
2018-05-07T11:42:09.482Z,35.84
2018-05-07T11:44:39.162Z,35.92
2018-05-07T11:47:08.778Z,34.59
2018-05-07T11:49:40.205Z,35.04
2018-05-07T11:52:09.795Z,34.55
2018-05-07T11:54:39.071Z,35.59
2018-05-07T11:57:08.012Z,31.46
2018-05-07T11:59:41.688Z,33.19
2018-05-07T12:02:11.646Z,34.18
2018-05-07T12:04:43.188Z,32.74
2018-05-07T12:07:12.435Z,33.09
2018-05-07T12:09:41.489Z,33.42
2018-05-07T12:12:10.173Z,33.72
2018-05-07T12:14:39.195Z,33.61
2018-05-07T12:17:09.322Z,32.32
2018-05-07T12:19:39.307Z,30.61
2018-05-07T12:22:22.027Z,29.83
2018-05-07T12:24:51.366Z,31.69
2018-05-07T12:27:36.693Z,27.46
2018-05-07T12:30:09.079Z,28.91
2018-05-07T12:35:30.486Z,32.55
2018-05-07T12:38:05.615Z,32.55
2018-05-07T12:40:35.241Z,32.90
2018-05-07T12:43:07.481Z,31.99
2018-05-07T12:45:39.356Z,32.20
2018-05-07T12:48:09.069Z,28.93
2018-05-07T12:50:42.502Z,31.30
2018-05-07T12:53:13.497Z,31.91
2018-05-07T12:55:46.452Z,32.16
2018-05-07T13:01:05.764Z,31.29
2018-05-07T13:03:38.958Z,31.59
2018-05-07T13:06:07.883Z,31.86
2018-05-07T13:08:37.607Z,30.35
2018-05-07T13:11:18.333Z,31.85
2018-05-07T13:13:47.364Z,30.11
2018-05-07T13:19:06.426Z,29.33
2018-05-07T13:21:38.662Z,29.18
2018-05-07T13:24:07.587Z,28.70
2018-05-07T13:26:36.503Z,29.23
2018-05-07T13:29:05.701Z,28.44
2018-05-07T13:31:36.203Z,28.72
2018-05-07T13:34:04.949Z,28.93
2018-05-07T13:36:36.023Z,28.27
2018-05-07T13:39:04.626Z,28.05
2018-05-07T13:41:36.737Z,28.31
2018-05-07T13:44:05.339Z,29.63
2018-05-07T13:46:34.015Z,24.92
2018-05-07T13:49:02.700Z,26.25
2018-05-07T13:51:31.396Z,26.69
2018-05-07T13:54:00.047Z,27.61
2018-05-07T13:56:29.031Z,26.88
2018-05-07T13:58:59.797Z,25.90
2018-05-07T14:01:28.412Z,27.52
2018-05-07T14:03:57.200Z,26.91
2018-05-07T14:06:26.775Z,25.84
2018-05-07T14:08:55.835Z,25.42
2018-05-07T14:11:24.450Z,26.89
2018-05-07T14:13:53.093Z,26.25
2018-05-07T14:16:21.789Z,23.67
2018-05-07T14:18:51.414Z,26.48
2018-05-07T14:21:20.473Z,27.87
2018-05-07T14:23:49.261Z,28.33
2018-05-07T14:26:21.635Z,28.92
2018-05-07T14:28:53.478Z,28.88
2018-05-07T14:31:24.039Z,27.18
2018-05-07T14:33:53.318Z,24.80
2018-05-07T14:36:25.812Z,27.05
2018-05-07T14:38:59.217Z,26.38
2018-05-07T14:44:24.283Z,25.36
2018-05-07T14:46:53.526Z,26.23
2018-05-07T14:49:22.425Z,28.03
2018-05-07T14:52:05.214Z,27.52
2018-05-07T14:54:41.356Z,27.71
2018-05-07T15:00:06.674Z,27.51
2018-05-07T15:02:36.634Z,27.59
2018-05-07T15:05:08.213Z,27.69
2018-05-07T15:07:47.064Z,26.56
2018-05-07T15:10:15.692Z,25.97
2018-05-07T15:15:35.146Z,19.36
2018-05-07T15:18:12.525Z,21.35
2018-05-07T15:23:47.004Z,21.11
2018-05-07T15:29:06.426Z,21.29
2018-05-07T15:31:35.501Z,21.94
2018-05-07T15:34:05.656Z,20.23
2018-05-07T15:36:37.131Z,20.84
2018-05-07T15:39:06.416Z,17.94
2018-05-07T15:41:39.656Z,18.87
2018-05-07T15:44:11.899Z,20.05
2018-05-07T15:46:48.333Z,20.67
2018-05-07T15:49:25.093Z,19.55
2018-05-07T15:51:53.702Z,20.10
2018-05-07T15:54:22.375Z,18.10
2018-05-07T15:56:52.690Z,17.71
2018-05-07T15:59:27.417Z,18.92
2018-05-07T16:01:58.157Z,18.71
2018-05-07T16:04:29.607Z,19.51
2018-05-07T16:06:58.790Z,20.09
2018-05-07T16:09:29.220Z,20.74
2018-05-07T16:11:58.390Z,19.78
2018-05-07T16:14:27.973Z,19.33
2018-05-07T16:16:57.931Z,19.88
2018-05-07T16:19:26.913Z,20.84
2018-05-07T16:21:55.936Z,21.09
2018-05-07T16:24:25.244Z,21.12
2018-05-07T16:26:56.733Z,20.37
2018-05-07T16:29:29.149Z,19.43
2018-05-07T16:31:59.837Z,19.60
2018-05-07T16:34:28.614Z,19.75
2018-05-07T16:36:57.414Z,20.90
2018-05-07T16:39:26.571Z,18.62
2018-05-07T16:41:56.752Z,19.55
2018-05-07T16:44:25.507Z,17.81
2018-05-07T16:46:54.114Z,18.62
2018-05-07T16:49:22.747Z,16.68
2018-05-07T16:51:51.393Z,18.62
2018-05-07T16:54:36.323Z,18.89
2018-05-07T16:57:06.305Z,19.63
2018-05-07T16:59:34.958Z,19.60
2018-05-07T17:02:03.559Z,20.07
2018-05-07T17:04:32.511Z,19.45
2018-05-07T17:07:01.720Z,18.97
2018-05-07T17:09:30.343Z,16.17
2018-05-07T17:12:00.051Z,14.91
2018-05-07T17:14:28.676Z,17.32
2018-05-07T17:16:59.320Z,18.08
2018-05-07T17:19:27.923Z,15.20
2018-05-07T17:21:56.561Z,17.66
2018-05-07T17:24:25.217Z,17.69
2018-05-07T17:26:53.851Z,18.42
2018-05-07T17:29:22.483Z,19.27
2018-05-07T17:31:58.174Z,16.54
2018-05-07T17:34:27.667Z,18.56
2018-05-07T17:36:56.315Z,19.40
2018-05-07T17:39:25.462Z,19.71
2018-05-07T17:41:54.395Z,16.73
2018-05-07T17:44:59.850Z,19.31
2018-05-07T17:50:53.567Z,22.21
2018-05-07T17:53:30.397Z,23.46
2018-05-07T17:55:59.084Z,24.62
2018-05-07T17:58:35.042Z,23.59
2018-05-07T18:01:03.815Z,26.25
2018-05-07T18:03:35.998Z,27.90
2018-05-07T18:06:05.076Z,26.83
2018-05-07T18:08:36.885Z,29.53
2018-05-07T18:11:10.747Z,30.59
2018-05-07T18:13:41.287Z,30.98
2018-05-07T18:16:11.780Z,31.50
2018-05-07T18:18:40.486Z,30.42
2018-05-07T18:21:09.144Z,32.34
2018-05-07T18:23:38.705Z,33.17
2018-05-07T18:26:10.497Z,34.06
2018-05-07T18:28:46.867Z,34.86
2018-05-07T18:31:16.083Z,35.56
2018-05-07T18:33:44.848Z,36.31
2018-05-07T18:36:15.711Z,37.67
2018-05-07T18:38:46.338Z,38.19
2018-05-07T18:41:15.419Z,38.34
2018-05-07T18:43:44.085Z,38.78
2018-05-07T18:46:16.390Z,39.01
2018-05-07T18:48:50.056Z,40.65
2018-05-07T18:51:19.118Z,40.16
2018-05-07T18:53:48.284Z,41.96
2018-05-07T18:56:27.351Z,41.95
2018-05-07T18:58:59.288Z,41.73
2018-05-07T19:01:28.703Z,42.40
2018-05-07T19:04:01.159Z,42.59
2018-05-07T19:06:31.804Z,43.76
2018-05-07T19:09:06.199Z,43.56
2018-05-07T19:11:35.477Z,43.72
2018-05-07T19:14:04.827Z,44.46
2018-05-07T19:22:18.541Z,45.28
2018-05-07T19:25:03.101Z,44.30
2018-05-07T19:30:20.611Z,45.34
2018-05-07T19:32:49.295Z,45.76
2018-05-07T19:35:17.960Z,45.78
2018-05-07T19:37:46.732Z,45.96
2018-05-07T19:40:15.541Z,46.01
2018-05-07T19:45:41.693Z,46.56
2018-05-07T19:48:12.360Z,47.45
2018-05-07T19:50:42.034Z,46.78
2018-05-07T19:53:26.482Z,47.04
2018-05-07T19:55:55.213Z,47.84
2018-05-07T19:58:24.082Z,46.83
2018-05-07T20:00:55.130Z,47.90
2018-05-07T20:03:39.253Z,46.65
2018-05-07T20:06:11.545Z,47.89
2018-05-07T20:08:46.106Z,48.32
2018-05-07T20:11:23.127Z,48.50
2018-05-07T20:16:39.649Z,48.86
2018-05-07T20:19:16.416Z,48.97
2018-05-07T20:21:46.108Z,49.36
2018-05-07T20:27:04.599Z,49.82
2018-05-07T20:29:37.971Z,49.54
2018-05-07T20:32:07.133Z,49.42
2018-05-07T20:34:38.266Z,49.07
2018-05-07T20:37:06.967Z,49.06
2018-05-07T20:42:27.435Z,48.90
2018-05-07T20:53:19.637Z,50.49
2018-05-07T20:55:49.087Z,51.09
2018-05-07T20:58:27.943Z,50.18
2018-05-07T21:00:56.663Z,51.85
2018-05-07T21:03:26.155Z,51.92
2018-05-07T21:06:02.882Z,52.50
2018-05-07T21:08:31.927Z,51.73
2018-05-07T21:11:01.046Z,51.89
2018-05-07T21:13:31.760Z,52.14
2018-05-07T21:16:00.793Z,51.19
2018-05-07T21:18:29.874Z,52.67
2018-05-07T21:20:58.676Z,52.54
2018-05-07T21:23:27.756Z,51.44
2018-05-07T21:25:56.753Z,52.86
2018-05-07T21:28:25.865Z,53.03
2018-05-07T21:30:57.647Z,51.44
2018-05-07T21:33:26.787Z,53.07
2018-05-07T21:35:55.906Z,51.76
2018-05-07T21:38:25.687Z,51.64
2018-05-07T21:40:54.668Z,53.24
2018-05-07T21:43:23.585Z,53.64
2018-05-07T21:45:52.697Z,54.67
2018-05-07T21:48:21.530Z,54.45
2018-05-07T21:50:50.436Z,54.93
2018-05-07T21:53:19.800Z,53.06
2018-05-07T21:55:48.769Z,54.90
2018-05-07T21:58:17.777Z,55.63
2018-05-07T22:00:46.794Z,55.82
2018-05-07T22:03:15.780Z,56.17
2018-05-07T22:05:44.675Z,56.45
2018-05-07T22:08:15.939Z,56.60
2018-05-07T22:10:45.028Z,56.71
2018-05-07T22:13:13.945Z,56.75
2018-05-07T22:15:42.491Z,56.91
2018-05-07T22:18:11.361Z,56.34
2018-05-07T22:20:42.600Z,56.28
2018-05-07T22:23:11.227Z,56.75
2018-05-07T22:25:39.887Z,57.19
2018-05-07T22:28:08.484Z,57.23
2018-05-07T22:30:37.732Z,57.44
2018-05-07T22:33:06.743Z,57.42
2018-05-07T22:35:35.976Z,57.50
2018-05-07T22:38:04.704Z,57.49
2018-05-07T22:40:34.454Z,58.65
2018-05-07T22:43:03.433Z,59.25
2018-05-07T22:45:33.419Z,59.17
2018-05-07T22:48:04.869Z,57.85
2018-05-07T22:50:33.633Z,58.28
2018-05-07T22:53:02.627Z,57.50
2018-05-07T22:55:31.473Z,56.84
2018-05-07T22:58:08.667Z,56.81
2018-05-07T23:00:37.497Z,57.07
2018-05-07T23:03:06.573Z,56.77
2018-05-07T23:05:35.562Z,56.99
2018-05-07T23:08:04.569Z,56.76
2018-05-07T23:10:37.812Z,56.99
2018-05-07T23:13:06.467Z,57.34
2018-05-07T23:15:35.194Z,56.99
2018-05-07T23:18:03.835Z,57.52
2018-05-07T23:20:33.085Z,59.24
2018-05-07T23:23:01.751Z,60.50
2018-05-07T23:25:30.503Z,60.76
2018-05-07T23:28:00.268Z,60.81
2018-05-07T23:30:28.873Z,61.13
2018-05-07T23:32:57.529Z,61.63
2018-05-07T23:35:26.153Z,61.36
2018-05-07T23:37:54.824Z,61.20
2018-05-07T23:40:23.451Z,61.84
2018-05-07T23:42:52.108Z,61.83
2018-05-07T23:45:20.719Z,62.18
2018-05-07T23:47:50.283Z,62.65
2018-05-07T23:50:19.520Z,62.81
2018-05-07T23:52:48.180Z,62.62
2018-05-07T23:55:16.871Z,62.58
2018-05-07T23:57:45.531Z,62.16
